Time;durP1;ratioP1;P1;durP2;ratioP2;P2;SDS_P1;SDS_P2;PMS_P1;PMS_P2;Temp;Humidity;BMP_temperature;BMP_pressure;BME280_temperature;BME280_humidity;BME280_pressure;Samples;Min_cycle;Max_cycle;Signal;HPM_P1;HPM_P2
2023/07/27 00:00:16;;;;;;;;;;;16.40;78.20;;;;;;5024808;28;20005;-81
2023/07/27 00:02:41;;;;;;;;;;;16.50;79.30;;;;;;5021176;28;19993;-81
2023/07/27 00:05:07;;;;;;;;;;;16.50;79.20;;;;;;5025510;28;20284;-81
2023/07/27 00:07:33;;;;;;;;;;;16.40;79.40;;;;;;5025974;28;19918;-81
2023/07/27 00:09:58;;;;;;;;;;;16.30;79.80;;;;;;5027010;28;19979;-81
2023/07/27 00:12:24;;;;;;;;;;;16.30;80.20;;;;;;5024256;28;19919;-82
2023/07/27 00:14:50;;;;;;;;;;;16.30;80.20;;;;;;5024187;28;19920;-81
2023/07/27 00:17:16;;;;;;;;;;;16.40;78.20;;;;;;5024823;28;20420;-80
2023/07/27 00:19:41;;;;;;;;;;;16.30;79.20;;;;;;5024222;28;20288;-81
2023/07/27 00:22:07;;;;;;;;;;;16.30;79.80;;;;;;5023387;28;20031;-81
2023/07/27 00:24:32;;;;;;;;;;;16.20;80.50;;;;;;5023535;28;19918;-81
2023/07/27 00:26:58;;;;;;;;;;;16.20;80.10;;;;;;5021545;28;19945;-81
2023/07/27 00:29:23;;;;;;;;;;;16.10;80.60;;;;;;5022929;28;19964;-80
2023/07/27 00:31:50;;;;;;;;;;;16.10;80.90;;;;;;5022446;28;20014;-80
2023/07/27 00:34:16;;;;;;;;;;;16.10;80.90;;;;;;5016005;28;20451;-80
2023/07/27 00:36:41;;;;;;;;;;;16.10;81.20;;;;;;5020345;28;19910;-80
2023/07/27 00:39:07;;;;;;;;;;;16.00;80.90;;;;;;5021667;28;19914;-80
2023/07/27 00:41:32;;;;;;;;;;;16.00;81.40;;;;;;5020641;28;19910;-82
2023/07/27 00:43:58;;;;;;;;;;;16.00;81.30;;;;;;5015822;28;20660;-83
2023/07/27 00:46:23;;;;;;;;;;;16.00;81.30;;;;;;4999126;28;19910;-83
2023/07/27 00:48:49;;;;;;;;;;;16.00;80.30;;;;;;5017207;28;20387;-83
2023/07/27 00:51:14;;;;;;;;;;;16.10;80.00;;;;;;5017082;28;19937;-83
2023/07/27 00:53:40;;;;;;;;;;;16.10;80.60;;;;;;5018387;28;19909;-83
2023/07/27 00:56:05;;;;;;;;;;;16.10;80.60;;;;;;5018699;28;19939;-83
2023/07/27 00:58:32;;;;;;;;;;;16.00;81.40;;;;;;5001537;28;20373;-83
2023/07/27 01:00:59;;;;;;;;;;;16.00;81.40;;;;;;5017766;28;19945;-83
2023/07/27 01:03:25;;;;;;;;;;;16.00;81.40;;;;;;5017210;28;19977;-83
2023/07/27 01:05:51;;;;;;;;;;;16.10;81.10;;;;;;5016233;28;20003;-84
2023/07/27 01:08:16;;;;;;;;;;;16.10;81.00;;;;;;5017307;28;19914;-82
2023/07/27 01:10:49;;;;;;;;;;;16.10;80.60;;;;;;5015385;28;20610;-83
2023/07/27 01:13:28;;;;;;;;;;;16.00;81.00;;;;;;5013971;28;19909;-83
2023/07/27 01:15:57;;;;;;;;;;;16.00;81.40;;;;;;5006457;28;19910;-83
2023/07/27 01:18:29;;;;;;;;;;;16.00;81.70;;;;;;5013827;28;19909;-83
2023/07/27 01:21:01;;;;;;;;;;;16.10;80.20;;;;;;5013550;28;19941;-83
2023/07/27 01:23:42;;;;;;;;;;;16.10;80.20;;;;;;5012852;28;20365;-83
2023/07/27 01:26:21;;;;;;;;;;;16.10;79.80;;;;;;5011543;28;19928;-83
2023/07/27 01:28:46;;;;;;;;;;;16.10;79.70;;;;;;5013345;28;19910;-83
2023/07/27 01:31:23;;;;;;;;;;;16.10;80.60;;;;;;5014273;28;19932;-83
2023/07/27 01:33:59;;;;;;;;;;;16.10;80.90;;;;;;5013070;28;19910;-83
2023/07/27 01:36:26;;;;;;;;;;;16.10;81.00;;;;;;5005693;28;19910;-83
2023/07/27 01:38:53;;;;;;;;;;;16.10;81.20;;;;;;5017813;28;19938;-83
2023/07/27 01:41:18;;;;;;;;;;;16.10;79.40;;;;;;5017953;28;19963;-83
2023/07/27 01:43:44;;;;;;;;;;;16.10;80.40;;;;;;5001950;28;19945;-83
2023/07/27 01:46:11;;;;;;;;;;;16.20;80.60;;;;;;5018659;28;19921;-83
2023/07/27 01:48:38;;;;;;;;;;;16.10;80.80;;;;;;5004073;28;19917;-82
2023/07/27 01:51:04;;;;;;;;;;;16.10;80.10;;;;;;5017893;28;19931;-83
2023/07/27 01:53:30;;;;;;;;;;;16.20;80.20;;;;;;5020550;28;19973;-82
2023/07/27 01:55:56;;;;;;;;;;;16.30;79.30;;;;;;5018739;28;20059;-83
2023/07/27 01:58:23;;;;;;;;;;;16.30;77.50;;;;;;5020050;28;19913;-83
2023/07/27 02:00:49;;;;;;;;;;;16.40;77.10;;;;;;5020401;28;19909;-83
2023/07/27 02:03:15;;;;;;;;;;;16.30;78.60;;;;;;5020643;28;20278;-83
2023/07/27 02:05:41;;;;;;;;;;;16.30;78.60;;;;;;5020513;28;19914;-84
2023/07/27 02:08:06;;;;;;;;;;;16.30;78.70;;;;;;5022775;28;19963;-83
2023/07/27 02:10:35;;;;;;;;;;;16.40;77.50;;;;;;5020863;28;19913;-83
2023/07/27 02:13:12;;;;;;;;;;;16.50;77.60;;;;;;5012421;28;19996;-83
2023/07/27 02:15:42;;;;;;;;;;;16.60;75.70;;;;;;5002095;28;19914;-84
2023/07/27 02:18:10;;;;;;;;;;;16.60;76.50;;;;;;5021950;28;19937;-83
2023/07/27 02:20:37;;;;;;;;;;;16.60;75.60;;;;;;5014234;28;19916;-82
2023/07/27 02:23:04;;;;;;;;;;;16.70;74.50;;;;;;5020360;28;19922;-83
2023/07/27 02:25:32;;;;;;;;;;;16.70;74.50;;;;;;5021336;28;19952;-82
2023/07/27 02:27:58;;;;;;;;;;;16.70;75.20;;;;;;5023916;28;19985;-82
2023/07/27 02:30:23;;;;;;;;;;;16.70;73.80;;;;;;5022585;28;19925;-84
2023/07/27 02:32:49;;;;;;;;;;;16.80;74.30;;;;;;5021675;28;19913;-85
2023/07/27 02:35:14;;;;;;;;;;;16.80;74.50;;;;;;5034101;28;19913;-85
2023/07/27 02:37:40;;;;;;;;;;;16.80;74.80;;;;;;5034581;28;19909;-85
2023/07/27 02:40:05;;;;;;;;;;;16.90;74.70;;;;;;5029969;28;19914;-85
2023/07/27 02:42:31;;;;;;;;;;;16.80;75.10;;;;;;5024875;28;19944;-85
2023/07/27 02:44:56;;;;;;;;;;;16.90;75.70;;;;;;5021672;28;19914;-85
2023/07/27 02:47:22;;;;;;;;;;;16.90;76.00;;;;;;5018280;28;19909;-84
2023/07/27 02:49:47;;;;;;;;;;;16.80;76.00;;;;;;5024636;28;19956;-84
2023/07/27 02:52:13;;;;;;;;;;;16.90;75.90;;;;;;5024943;28;19921;-83
2023/07/27 02:54:38;;;;;;;;;;;16.80;77.30;;;;;;5014620;28;19933;-83
2023/07/27 02:57:04;;;;;;;;;;;16.80;76.80;;;;;;5022416;28;19925;-84
2023/07/27 02:59:29;;;;;;;;;;;16.70;77.40;;;;;;5022709;28;20500;-84
2023/07/27 03:01:55;;;;;;;;;;;16.70;78.40;;;;;;5023385;28;19941;-83
2023/07/27 03:04:20;;;;;;;;;;;16.60;78.00;;;;;;5023065;28;19918;-83
2023/07/27 03:06:46;;;;;;;;;;;16.60;78.70;;;;;;5022874;28;19909;-84
2023/07/27 03:09:11;;;;;;;;;;;16.50;79.70;;;;;;5013786;28;19965;-84
2023/07/27 03:11:40;;;;;;;;;;;16.50;79.80;;;;;;5018957;28;19921;-84
2023/07/27 03:14:05;;;;;;;;;;;16.50;79.90;;;;;;5015761;28;20238;-84
2023/07/27 03:16:31;;;;;;;;;;;16.50;81.00;;;;;;5020652;28;19917;-84
2023/07/27 03:18:56;;;;;;;;;;;16.50;80.90;;;;;;5020459;28;20363;-85
2023/07/27 03:21:22;;;;;;;;;;;16.40;81.10;;;;;;5019166;28;19913;-85
2023/07/27 03:23:48;;;;;;;;;;;16.30;82.20;;;;;;5017457;28;19952;-84
2023/07/27 03:26:14;;;;;;;;;;;16.30;82.50;;;;;;5019298;28;19992;-85
2023/07/27 03:28:39;;;;;;;;;;;16.20;82.50;;;;;;5017353;28;19963;-85
2023/07/27 03:31:19;;;;;;;;;;;16.20;82.80;;;;;;5018683;28;19909;-85
2023/07/27 03:33:44;;;;;;;;;;;16.10;83.00;;;;;;5011616;28;20396;-85
2023/07/27 03:36:10;;;;;;;;;;;16.10;83.50;;;;;;5017786;28;19909;-85
2023/07/27 03:38:35;;;;;;;;;;;16.00;84.10;;;;;;5014441;28;19914;-86
2023/07/27 03:41:01;;;;;;;;;;;16.10;84.60;;;;;;5016987;28;19917;-86
2023/07/27 03:43:26;;;;;;;;;;;16.00;85.50;;;;;;5015956;28;19940;-85
2023/07/27 03:45:52;;;;;;;;;;;15.90;86.30;;;;;;5005307;28;19945;-85
2023/07/27 03:48:18;;;;;;;;;;;15.90;86.10;;;;;;5007862;28;19913;-85
2023/07/27 03:50:43;;;;;;;;;;;16.00;85.80;;;;;;5013011;28;20381;-85
2023/07/27 03:53:09;;;;;;;;;;;15.90;86.60;;;;;;5007524;28;19917;-85
2023/07/27 03:55:34;;;;;;;;;;;15.90;87.10;;;;;;5011459;28;20013;-84
2023/07/27 03:58:03;;;;;;;;;;;15.90;87.20;;;;;;5012672;28;19992;-85
2023/07/27 04:00:28;;;;;;;;;;;15.80;87.40;;;;;;5010910;28;20004;-85
2023/07/27 04:02:54;;;;;;;;;;;15.80;87.50;;;;;;4996191;28;19969;-86
2023/07/27 04:05:19;;;;;;;;;;;15.70;87.80;;;;;;5011570;28;19925;-85
2023/07/27 04:07:48;;;;;;;;;;;15.70;87.90;;;;;;5014083;28;20341;-85
2023/07/27 04:10:13;;;;;;;;;;;15.70;88.10;;;;;;5011457;28;19914;-84
2023/07/27 04:12:39;;;;;;;;;;;15.70;87.90;;;;;;5009661;28;19924;-85
2023/07/27 04:15:05;;;;;;;;;;;15.70;87.80;;;;;;5015103;28;19910;-85
2023/07/27 04:17:30;;;;;;;;;;;15.70;88.00;;;;;;5008945;28;19913;-86
2023/07/27 04:19:56;;;;;;;;;;;15.60;88.20;;;;;;5014106;28;19914;-86
2023/07/27 04:22:21;;;;;;;;;;;15.60;88.40;;;;;;5015025;28;20019;-86
2023/07/27 04:24:48;;;;;;;;;;;15.60;88.30;;;;;;5014453;28;19913;-86
2023/07/27 04:27:14;;;;;;;;;;;15.60;88.50;;;;;;5016473;28;19949;-85
2023/07/27 04:29:39;;;;;;;;;;;15.60;88.70;;;;;;5012386;28;19983;-84
2023/07/27 04:32:05;;;;;;;;;;;15.70;88.80;;;;;;4995164;28;19920;-86
2023/07/27 04:34:30;;;;;;;;;;;15.70;88.30;;;;;;5006045;28;19918;-86
2023/07/27 04:36:56;;;;;;;;;;;15.70;88.50;;;;;;4991578;28;19921;-84
2023/07/27 04:39:21;;;;;;;;;;;15.60;88.60;;;;;;5009971;28;20479;-88
2023/07/27 04:41:47;;;;;;;;;;;15.60;88.70;;;;;;4998520;28;19920;-87
2023/07/27 04:44:12;;;;;;;;;;;15.60;89.00;;;;;;5018265;28;20419;-85
2023/07/27 04:46:38;;;;;;;;;;;15.60;89.30;;;;;;5012253;28;19914;-84
2023/07/27 04:49:06;;;;;;;;;;;15.60;88.30;;;;;;5015680;28;20024;-84
2023/07/27 04:51:32;;;;;;;;;;;15.60;88.70;;;;;;5017409;28;19921;-84
2023/07/27 04:53:57;;;;;;;;;;;15.60;88.90;;;;;;5017769;28;19913;-83
2023/07/27 04:56:23;;;;;;;;;;;15.60;89.30;;;;;;5016683;28;19943;-84
2023/07/27 04:58:48;;;;;;;;;;;15.60;89.20;;;;;;5007977;28;19909;-82
2023/07/27 05:01:14;;;;;;;;;;;15.60;89.50;;;;;;5019025;28;19925;-83
2023/07/27 05:03:39;;;;;;;;;;;15.70;89.20;;;;;;5013073;28;20003;-84
2023/07/27 05:06:05;;;;;;;;;;;15.60;89.50;;;;;;4999144;28;19913;-84
2023/07/27 05:08:30;;;;;;;;;;;15.60;89.40;;;;;;5017218;28;19914;-84
2023/07/27 05:10:56;;;;;;;;;;;15.60;89.00;;;;;;5009351;28;19928;-85
2023/07/27 05:13:21;;;;;;;;;;;15.60;88.80;;;;;;5014513;28;19914;-85
2023/07/27 05:15:47;;;;;;;;;;;15.60;89.10;;;;;;5012906;28;19913;-85
2023/07/27 05:18:14;;;;;;;;;;;15.50;89.40;;;;;;5013315;28;20032;-85
2023/07/27 05:20:39;;;;;;;;;;;15.50;89.70;;;;;;5014072;28;19960;-85
2023/07/27 05:23:05;;;;;;;;;;;15.50;89.60;;;;;;5015171;28;19913;-84
2023/07/27 05:25:30;;;;;;;;;;;15.50;89.70;;;;;;4994577;28;19917;-85
2023/07/27 05:27:56;;;;;;;;;;;15.60;89.70;;;;;;5012699;28;19933;-86
2023/07/27 05:30:21;;;;;;;;;;;15.60;89.20;;;;;;5008174;28;19983;-85
2023/07/27 05:32:47;;;;;;;;;;;15.70;89.00;;;;;;5009728;28;19919;-87
2023/07/27 05:35:12;;;;;;;;;;;15.60;89.00;;;;;;5008002;28;20014;-86
2023/07/27 05:37:39;;;;;;;;;;;15.60;88.70;;;;;;5009931;28;19914;-87
2023/07/27 05:40:05;;;;;;;;;;;15.70;88.40;;;;;;5012435;28;20357;-87
2023/07/27 05:42:30;;;;;;;;;;;15.60;88.80;;;;;;5012166;28;19940;-87
2023/07/27 05:44:56;;;;;;;;;;;15.50;89.20;;;;;;5008041;28;19967;-85
2023/07/27 05:47:21;;;;;;;;;;;15.50;88.90;;;;;;5011852;28;20442;-86
2023/07/27 05:49:47;;;;;;;;;;;15.50;89.50;;;;;;5010166;28;19925;-86
2023/07/27 05:52:12;;;;;;;;;;;15.40;89.30;;;;;;5011754;28;19945;-86
2023/07/27 05:54:38;;;;;;;;;;;15.50;88.90;;;;;;5008648;28;19920;-85
2023/07/27 05:57:04;;;;;;;;;;;15.40;89.30;;;;;;5007712;28;20392;-86
2023/07/27 05:59:29;;;;;;;;;;;15.50;89.20;;;;;;5012083;28;19925;-84
2023/07/27 06:01:55;;;;;;;;;;;15.50;89.20;;;;;;5019959;28;19920;-83
2023/07/27 06:04:20;;;;;;;;;;;15.50;89.50;;;;;;5000529;28;19924;-84
2023/07/27 06:06:47;;;;;;;;;;;15.60;88.80;;;;;;5026952;28;19902;-84
2023/07/27 06:09:13;;;;;;;;;;;15.60;88.60;;;;;;5023077;28;19945;-82
2023/07/27 06:11:38;;;;;;;;;;;15.60;88.60;;;;;;5015800;28;19914;-82
2023/07/27 06:14:04;;;;;;;;;;;15.60;89.00;;;;;;5024438;28;19914;-82
2023/07/27 06:16:30;;;;;;;;;;;15.50;89.50;;;;;;5011025;28;20336;-82
2023/07/27 06:18:55;;;;;;;;;;;15.50;89.00;;;;;;5013877;28;19949;-81
2023/07/27 06:21:21;;;;;;;;;;;15.60;89.00;;;;;;5007132;28;19920;-82
2023/07/27 06:23:46;;;;;;;;;;;15.70;89.50;;;;;;5023353;28;19921;-81
2023/07/27 06:26:12;;;;;;;;;;;15.70;88.80;;;;;;5022434;28;19920;-82
2023/07/27 06:28:37;;;;;;;;;;;15.60;89.20;;;;;;5022869;28;19920;-82
2023/07/27 06:31:03;;;;;;;;;;;15.60;89.60;;;;;;5021599;28;19971;-82
2023/07/27 06:33:28;;;;;;;;;;;15.80;89.30;;;;;;5020090;28;20028;-82
2023/07/27 06:35:54;;;;;;;;;;;15.70;89.20;;;;;;5018978;28;19913;-82
2023/07/27 06:38:19;;;;;;;;;;;15.80;89.10;;;;;;5019679;28;19918;-82
2023/07/27 06:40:45;;;;;;;;;;;15.80;89.10;;;;;;5018128;28;19914;-83
2023/07/27 06:43:10;;;;;;;;;;;15.70;89.10;;;;;;5022588;28;19921;-83
2023/07/27 06:45:36;;;;;;;;;;;15.80;89.60;;;;;;5021411;28;19933;-84
2023/07/27 06:48:02;;;;;;;;;;;15.80;89.40;;;;;;5021791;28;19908;-83
2023/07/27 06:50:28;;;;;;;;;;;15.70;89.50;;;;;;5021596;28;19922;-82
2023/07/27 06:52:53;;;;;;;;;;;15.80;89.30;;;;;;5018504;28;19956;-82
2023/07/27 06:55:19;;;;;;;;;;;15.80;89.00;;;;;;5020658;28;19924;-81
2023/07/27 06:57:44;;;;;;;;;;;15.70;89.20;;;;;;5024262;28;19949;-81
2023/07/27 07:00:10;;;;;;;;;;;15.90;88.90;;;;;;5018962;28;19940;-82
2023/07/27 07:02:35;;;;;;;;;;;15.90;89.20;;;;;;5021298;28;19921;-80
2023/07/27 07:05:01;;;;;;;;;;;15.90;89.60;;;;;;5019642;28;19918;-81
2023/07/27 07:07:27;;;;;;;;;;;15.90;89.40;;;;;;5011262;28;19988;-81
2023/07/27 07:09:53;;;;;;;;;;;15.90;89.80;;;;;;5009703;28;19944;-81
2023/07/27 07:12:18;;;;;;;;;;;16.00;89.80;;;;;;5014891;28;19940;-84
2023/07/27 07:14:44;;;;;;;;;;;15.90;90.00;;;;;;5014532;28;20394;-86
2023/07/27 07:17:09;;;;;;;;;;;16.00;90.10;;;;;;5014475;28;19921;-85
2023/07/27 07:19:35;;;;;;;;;;;16.00;90.30;;;;;;5013446;28;19920;-81
2023/07/27 07:22:00;;;;;;;;;;;16.10;90.40;;;;;;5014883;28;19993;-83
2023/07/27 07:24:26;;;;;;;;;;;16.20;90.00;;;;;;5012499;28;20270;-83
2023/07/27 07:26:51;;;;;;;;;;;16.20;90.00;;;;;;5011835;28;19917;-82
2023/07/27 07:29:17;;;;;;;;;;;16.20;90.60;;;;;;5015423;28;19913;-82
2023/07/27 07:31:42;;;;;;;;;;;16.30;90.40;;;;;;5012237;28;19920;-83
2023/07/27 07:34:08;;;;;;;;;;;16.30;90.50;;;;;;5011334;28;19918;-82
2023/07/27 07:36:33;;;;;;;;;;;16.40;90.50;;;;;;5012173;28;19922;-84
2023/07/27 07:38:59;;;;;;;;;;;16.40;90.70;;;;;;5012364;28;20360;-83
2023/07/27 07:41:24;;;;;;;;;;;16.50;90.40;;;;;;5013057;28;20356;-83
2023/07/27 07:43:49;;;;;;;;;;;16.50;90.30;;;;;;5006171;28;20381;-82
2023/07/27 07:46:15;;;;;;;;;;;16.40;90.00;;;;;;5019618;28;19936;-83
2023/07/27 07:48:41;;;;;;;;;;;16.40;90.20;;;;;;5020439;28;19913;-83
2023/07/27 07:51:13;;;;;;;;;;;16.60;90.10;;;;;;5015566;28;19924;-82
2023/07/27 07:53:38;;;;;;;;;;;16.60;89.90;;;;;;5014343;28;19913;-86
2023/07/27 07:56:04;;;;;;;;;;;16.50;90.00;;;;;;5011722;28;19996;-87
2023/07/27 07:58:30;;;;;;;;;;;16.50;90.10;;;;;;5075786;22;19932;-84
2023/07/27 08:00:58;;;;;;;;;;;16.40;90.30;;;;;;5055195;28;19953;-85
2023/07/27 08:03:24;;;;;;;;;;;16.50;90.20;;;;;;5068732;28;19924;-85
2023/07/27 08:05:49;;;;;;;;;;;16.60;90.60;;;;;;5048672;28;19928;-84
2023/07/27 08:08:15;;;;;;;;;;;16.60;90.40;;;;;;5034411;28;19912;-84
2023/07/27 08:10:40;;;;;;;;;;;16.60;90.50;;;;;;5053216;28;19947;-84
2023/07/27 08:13:05;;;;;;;;;;;16.60;90.60;;;;;;5034254;28;19959;-83
2023/07/27 08:15:31;;;;;;;;;;;16.60;90.50;;;;;;5031323;28;20253;-85
2023/07/27 08:17:56;;;;;;;;;;;16.70;90.50;;;;;;5028677;28;19916;-83
2023/07/27 08:20:22;;;;;;;;;;;16.60;90.30;;;;;;5057603;28;19920;-84
2023/07/27 08:22:47;;;;;;;;;;;16.60;90.30;;;;;;5029132;28;19952;-84
2023/07/27 08:25:14;;;;;;;;;;;16.50;90.70;;;;;;5055749;28;20360;-84
2023/07/27 08:27:40;;;;;;;;;;;16.60;90.80;;;;;;5052108;28;19924;-82
2023/07/27 08:30:07;;;;;;;;;;;16.60;90.70;;;;;;5058406;28;19909;-84
2023/07/27 08:32:32;;;;;;;;;;;16.60;90.80;;;;;;5063910;28;20033;-83
2023/07/27 08:34:58;;;;;;;;;;;16.70;91.00;;;;;;5029538;28;20300;-83
2023/07/27 08:37:23;;;;;;;;;;;16.60;90.90;;;;;;5041070;28;19974;-84
2023/07/27 08:39:49;;;;;;;;;;;16.70;91.20;;;;;;5045814;28;19980;-83
2023/07/27 08:42:15;;;;;;;;;;;16.80;90.90;;;;;;5031355;28;19913;-83
2023/07/27 08:44:43;;;;;;;;;;;16.70;90.80;;;;;;5051438;28;19921;-83
2023/07/27 08:47:09;;;;;;;;;;;16.80;91.40;;;;;;5050296;28;19912;-84
2023/07/27 08:49:35;;;;;;;;;;;16.90;91.30;;;;;;5034879;28;20377;-83
2023/07/27 08:52:01;;;;;;;;;;;17.00;91.30;;;;;;5051779;28;19927;-83
2023/07/27 08:54:26;;;;;;;;;;;17.00;91.20;;;;;;5042999;28;19921;-83
2023/07/27 08:56:52;;;;;;;;;;;17.00;91.10;;;;;;5033264;28;19924;-84
2023/07/27 08:59:17;;;;;;;;;;;17.10;91.10;;;;;;5050418;28;20334;-84
2023/07/27 09:01:43;;;;;;;;;;;17.10;91.30;;;;;;5032298;28;20287;-83
2023/07/27 09:04:08;;;;;;;;;;;17.20;91.20;;;;;;5031817;28;19947;-83
2023/07/27 09:06:44;;;;;;;;;;;17.30;91.20;;;;;;5033794;28;20273;-84
2023/07/27 09:09:13;;;;;;;;;;;17.40;91.00;;;;;;5044097;28;20463;-84
2023/07/27 09:11:39;;;;;;;;;;;17.50;91.10;;;;;;5031165;28;19991;-84
2023/07/27 09:14:05;;;;;;;;;;;17.50;90.90;;;;;;5037532;28;20376;-84
2023/07/27 09:16:33;;;;;;;;;;;17.40;90.50;;;;;;5061607;28;19974;-83
2023/07/27 09:18:59;;;;;;;;;;;17.30;90.80;;;;;;5029152;28;19944;-84
2023/07/27 09:21:25;;;;;;;;;;;17.40;91.00;;;;;;5027356;28;20018;-84
2023/07/27 09:23:50;;;;;;;;;;;17.30;90.80;;;;;;5038472;28;20032;-84
2023/07/27 09:26:23;;;;;;;;;;;17.30;91.00;;;;;;5033013;28;19913;-84
2023/07/27 09:28:49;;;;;;;;;;;17.30;90.90;;;;;;5036530;28;19917;-83
2023/07/27 09:31:14;;;;;;;;;;;17.30;91.20;;;;;;5040137;28;20011;-84
2023/07/27 09:33:40;;;;;;;;;;;17.40;90.80;;;;;;5040630;28;19909;-84
2023/07/27 09:36:07;;;;;;;;;;;17.40;90.90;;;;;;5062456;28;19920;-85
2023/07/27 09:38:32;;;;;;;;;;;17.30;91.00;;;;;;5043405;28;20326;-85
2023/07/27 09:41:04;;;;;;;;;;;17.30;90.80;;;;;;5045263;28;19908;-85
2023/07/27 09:43:35;;;;;;;;;;;17.10;91.10;;;;;;5041219;28;19923;-84
2023/07/27 09:46:01;;;;;;;;;;;17.20;91.40;;;;;;5068568;28;21348;-84
2023/07/27 09:48:28;;;;;;;;;;;17.10;91.30;;;;;;5063454;28;19913;-83
2023/07/27 09:50:54;;;;;;;;;;;17.10;91.90;;;;;;5046638;28;19913;-84
2023/07/27 09:53:21;;;;;;;;;;;17.10;91.80;;;;;;5042982;28;19909;-85
2023/07/27 09:55:47;;;;;;;;;;;17.10;91.90;;;;;;5032747;28;20474;-84
2023/07/27 09:58:14;;;;;;;;;;;17.20;91.70;;;;;;5036295;28;19977;-84
2023/07/27 10:00:39;;;;;;;;;;;17.20;91.90;;;;;;5050757;28;19913;-84
2023/07/27 10:03:05;;;;;;;;;;;17.20;91.70;;;;;;5036040;28;20359;-84
2023/07/27 10:05:31;;;;;;;;;;;17.30;91.90;;;;;;5053086;28;19924;-84
2023/07/27 10:07:56;;;;;;;;;;;17.40;91.70;;;;;;5044625;28;20000;-84
2023/07/27 10:10:26;;;;;;;;;;;17.40;91.50;;;;;;5053067;28;19913;-85
2023/07/27 10:12:54;;;;;;;;;;;17.40;91.70;;;;;;5047960;28;19913;-85
2023/07/27 10:15:29;;;;;;;;;;;17.40;91.60;;;;;;5031477;28;19928;-85
2023/07/27 10:17:55;;;;;;;;;;;17.50;91.90;;;;;;5034353;28;19916;-85
2023/07/27 10:20:24;;;;;;;;;;;17.50;91.80;;;;;;5043367;28;19913;-83
2023/07/27 10:22:51;;;;;;;;;;;17.50;91.40;;;;;;5052970;28;19996;-84
2023/07/27 10:25:16;;;;;;;;;;;17.60;91.40;;;;;;5053103;28;20307;-84
2023/07/27 10:27:55;;;;;;;;;;;17.60;91.30;;;;;;5029446;28;19927;-84
2023/07/27 10:30:21;;;;;;;;;;;17.50;91.40;;;;;;5050782;28;19928;-85
2023/07/27 10:33:06;;;;;;;;;;;17.60;91.60;;;;;;5031345;28;19913;-84
2023/07/27 10:35:52;;;;;;;;;;;17.60;91.70;;;;;;5059356;28;19915;-85
2023/07/27 10:38:20;;;;;;;;;;;17.60;91.90;;;;;;5029842;28;19956;-85
2023/07/27 10:40:45;;;;;;;;;;;17.70;91.70;;;;;;5045966;28;19908;-84
2023/07/27 10:43:10;;;;;;;;;;;17.80;91.50;;;;;;5035444;28;19963;-83
2023/07/27 10:45:36;;;;;;;;;;;17.80;91.40;;;;;;5036587;28;19967;-86
2023/07/27 10:48:02;;;;;;;;;;;17.90;91.60;;;;;;5044867;28;19962;-85
2023/07/27 10:50:27;;;;;;;;;;;18.10;91.50;;;;;;5040846;28;19920;-85
2023/07/27 10:52:53;;;;;;;;;;;18.10;91.40;;;;;;5053689;28;19912;-85
2023/07/27 10:55:22;;;;;;;;;;;18.10;91.20;;;;;;5029890;28;19909;-84
2023/07/27 10:57:48;;;;;;;;;;;18.10;91.10;;;;;;5037048;28;19965;-84
2023/07/27 11:00:13;;;;;;;;;;;18.10;91.30;;;;;;5028368;28;19920;-85
2023/07/27 11:02:39;;;;;;;;;;;18.10;91.30;;;;;;5035512;28;19913;-85
2023/07/27 11:05:06;;;;;;;;;;;18.10;91.10;;;;;;5034569;28;19931;-83
2023/07/27 11:07:33;;;;;;;;;;;18.10;91.50;;;;;;5035279;28;19921;-85
2023/07/27 11:10:08;;;;;;;;;;;18.00;91.50;;;;;;5040027;28;20027;-85
2023/07/27 11:12:46;;;;;;;;;;;18.10;91.50;;;;;;5025541;28;20394;-84
2023/07/27 11:15:15;;;;;;;;;;;18.20;91.60;;;;;;5032572;28;19967;-83
2023/07/27 11:17:41;;;;;;;;;;;18.20;91.20;;;;;;5034912;28;19921;-85
2023/07/27 11:20:08;;;;;;;;;;;18.20;91.30;;;;;;5030708;28;19916;-85
2023/07/27 11:22:35;;;;;;;;;;;18.30;91.30;;;;;;5038926;28;20347;-85
2023/07/27 11:25:01;;;;;;;;;;;18.30;91.50;;;;;;5051991;28;19912;-85
2023/07/27 11:27:27;;;;;;;;;;;18.30;91.50;;;;;;5045244;28;20023;-86
2023/07/27 11:29:52;;;;;;;;;;;18.20;91.60;;;;;;5051998;28;20071;-85
2023/07/27 11:32:24;;;;;;;;;;;18.20;91.60;;;;;;5045978;28;19999;-85
2023/07/27 11:34:53;;;;;;;;;;;18.20;92.00;;;;;;5038329;28;20467;-86
2023/07/27 11:37:18;;;;;;;;;;;18.30;92.10;;;;;;5039884;28;19958;-85
2023/07/27 11:39:44;;;;;;;;;;;18.30;91.90;;;;;;5054054;28;19932;-85
2023/07/27 11:42:11;;;;;;;;;;;18.30;91.80;;;;;;5029116;28;20007;-85
2023/07/27 11:44:37;;;;;;;;;;;18.30;91.40;;;;;;5033961;28;19916;-87
2023/07/27 11:47:02;;;;;;;;;;;18.20;91.50;;;;;;5031571;28;20000;-86
2023/07/27 11:49:28;;;;;;;;;;;18.30;91.50;;;;;;5038040;28;19913;-87
2023/07/27 11:51:53;;;;;;;;;;;18.20;91.50;;;;;;5055892;28;20399;-85
2023/07/27 11:54:23;;;;;;;;;;;18.30;91.40;;;;;;5032957;28;19914;-85
2023/07/27 11:56:52;;;;;;;;;;;18.30;91.50;;;;;;5034554;28;19920;-86
2023/07/27 11:59:19;;;;;;;;;;;18.20;91.40;;;;;;5034959;28;19946;-85
2023/07/27 12:01:45;;;;;;;;;;;18.30;91.60;;;;;;5041784;28;19909;-86
2023/07/27 12:04:11;;;;;;;;;;;18.20;91.50;;;;;;5043849;28;19924;-86
2023/07/27 12:06:37;;;;;;;;;;;18.30;91.60;;;;;;5035181;28;19909;-85
2023/07/27 12:09:04;;;;;;;;;;;18.30;91.60;;;;;;5033067;28;19916;-85
2023/07/27 12:11:30;;;;;;;;;;;18.30;91.70;;;;;;5058462;28;19939;-84
2023/07/27 12:13:55;;;;;;;;;;;18.40;92.00;;;;;;5046208;28;20376;-84
2023/07/27 12:16:21;;;;;;;;;;;18.40;91.80;;;;;;5033142;28;20347;-85
2023/07/27 12:18:46;;;;;;;;;;;18.40;91.70;;;;;;5041408;28;19913;-85
2023/07/27 12:21:12;;;;;;;;;;;18.50;91.70;;;;;;5026718;28;19912;-85
2023/07/27 12:23:38;;;;;;;;;;;18.50;92.10;;;;;;5034272;28;19928;-85
2023/07/27 12:26:03;;;;;;;;;;;18.70;92.10;;;;;;5031263;28;19943;-86
2023/07/27 12:28:31;;;;;;;;;;;18.80;91.90;;;;;;5050043;28;19912;-83
2023/07/27 12:30:56;;;;;;;;;;;18.90;91.70;;;;;;5032543;28;19972;-85
2023/07/27 12:33:25;;;;;;;;;;;18.90;91.60;;;;;;5050835;28;19955;-84
2023/07/27 12:35:52;;;;;;;;;;;18.90;91.50;;;;;;5036857;28;19908;-83
2023/07/27 12:38:18;;;;;;;;;;;19.00;91.60;;;;;;5037987;28;20345;-84
2023/07/27 12:40:43;;;;;;;;;;;19.00;91.40;;;;;;5054637;28;19909;-84
2023/07/27 12:43:09;;;;;;;;;;;19.00;91.10;;;;;;5058827;28;19919;-86
2023/07/27 12:45:35;;;;;;;;;;;19.00;91.10;;;;;;5055840;28;19991;-86
2023/07/27 12:48:00;;;;;;;;;;;19.10;91.30;;;;;;5033210;28;19997;-86
2023/07/27 12:50:26;;;;;;;;;;;19.10;91.10;;;;;;5045818;28;19952;-87
2023/07/27 12:52:53;;;;;;;;;;;19.20;91.00;;;;;;5037720;28;19944;-87
2023/07/27 12:55:19;;;;;;;;;;;19.30;90.80;;;;;;5048354;28;19908;-86
2023/07/27 12:57:44;;;;;;;;;;;19.30;90.80;;;;;;5031087;28;19927;-86
2023/07/27 13:00:14;;;;;;;;;;;19.40;90.40;;;;;;5031933;28;19912;-89
2023/07/27 13:02:40;;;;;;;;;;;19.60;90.30;;;;;;5051535;28;19912;-87
2023/07/27 13:05:12;;;;;;;;;;;19.70;90.40;;;;;;5033240;28;19924;-86
2023/07/27 13:07:41;;;;;;;;;;;19.90;90.40;;;;;;5039915;28;19932;-87
2023/07/27 13:10:08;;;;;;;;;;;19.90;90.10;;;;;;5033908;28;19923;-85
2023/07/27 13:12:33;;;;;;;;;;;19.60;89.20;;;;;;5042516;28;19917;-85
2023/07/27 13:15:02;;;;;;;;;;;19.50;89.90;;;;;;5047259;28;19962;-85
2023/07/27 13:17:27;;;;;;;;;;;19.40;90.00;;;;;;5040440;28;20703;-84
2023/07/27 13:19:53;;;;;;;;;;;19.10;90.20;;;;;;5048540;28;20056;-86
2023/07/27 13:22:18;;;;;;;;;;;19.00;90.60;;;;;;5065219;28;19912;-84
2023/07/27 13:24:44;;;;;;;;;;;19.00;91.00;;;;;;5051161;28;20003;-88
2023/07/27 13:27:09;;;;;;;;;;;18.90;91.10;;;;;;5033954;28;19915;-86
2023/07/27 13:29:34;;;;;;;;;;;19.00;91.20;;;;;;5030887;28;19968;-85
2023/07/27 13:32:00;;;;;;;;;;;18.80;91.20;;;;;;5040897;28;20348;-86
2023/07/27 13:34:25;;;;;;;;;;;19.00;91.50;;;;;;5058529;28;20010;-87
2023/07/27 13:36:51;;;;;;;;;;;19.00;91.20;;;;;;5039268;28;19999;-83
2023/07/27 13:39:17;;;;;;;;;;;19.00;91.20;;;;;;5041099;28;19916;-81
2023/07/27 13:41:43;;;;;;;;;;;19.00;91.30;;;;;;5054042;28;19909;-85
2023/07/27 13:44:08;;;;;;;;;;;19.00;91.00;;;;;;5029946;28;20549;-85
2023/07/27 13:46:33;;;;;;;;;;;19.00;91.20;;;;;;5052336;28;19912;-84
2023/07/27 13:48:59;;;;;;;;;;;19.00;91.30;;;;;;5037234;28;19912;-85
2023/07/27 13:51:25;;;;;;;;;;;19.00;91.30;;;;;;5054698;28;19947;-86
2023/07/27 13:53:50;;;;;;;;;;;19.00;91.20;;;;;;5033880;28;19970;-87
2023/07/27 13:56:16;;;;;;;;;;;19.00;91.30;;;;;;5030030;28;19917;-85
2023/07/27 13:58:41;;;;;;;;;;;19.00;91.50;;;;;;5024130;28;19917;-86
2023/07/27 14:01:06;;;;;;;;;;;19.10;91.00;;;;;;5048728;28;20408;-85
2023/07/27 14:03:32;;;;;;;;;;;19.00;91.10;;;;;;5031280;28;19924;-85
2023/07/27 14:05:59;;;;;;;;;;;19.10;91.20;;;;;;5033092;28;20446;-90
2023/07/27 14:08:25;;;;;;;;;;;19.00;91.10;;;;;;5039792;28;20284;-88
2023/07/27 14:10:50;;;;;;;;;;;19.00;91.30;;;;;;5034871;28;19959;-88